KCBM

Columbus Air Force Base

Airport
ICAO code
KCBM
Summary
ICAO Region
NAM
ICAO Territory
Location

Columbus, Mississippi,

Coordinates
33° 38' 38" N , 88° 26' 38" W
KCC
Airport LOS
Parallel Runway Operation
Metar
Observation
KCBM 301222Z 03005KT 3SM BR OVC002 11/11 A3012 RMK AO2A SLP202 TSNO $
Station
Columbus Air Force Base
Date/Time
2023-01-30 12:22:00
Wind direction
30°
Wind speed
05 kts
Lowest cloud amount
overcast
Temperature
11°C
Dew point
11°C
Humidity
100%
Weather condition
mist

Description

Columbus Air Force Base is a United States Air Force training installation located approximately 14 km north of the central business district of Columbus, Mississippi.

Climatology

Humid “subtropical” climate (Köppen climate classification Cfa) - characterized by hot, humid summers and cool winters. Significant amounts of precipitation occur in all seasons in most areas. Winter rainfall (and sometimes snowfall) is associated with large storms that the westerlies steer from west to east. Most summer rainfall occurs during thunderstorms and occasional tropical storms (hurricanes).

Airport map

Aerial View

SKYbrary Partners:

Safety knowledge contributed by: